createdAt,value
2023-03-22T00:00:05.853Z,31.60
2023-03-22T00:02:56.181Z,32.60
2023-03-22T00:05:24.540Z,36.85
2023-03-22T00:07:54.272Z,36.35
2023-03-22T00:10:22.954Z,50.20
2023-03-22T00:12:51.119Z,29.30
2023-03-22T00:15:19.878Z,26.05
2023-03-22T00:17:48.079Z,25.08
2023-03-22T00:20:21.017Z,27.83
2023-03-22T00:22:49.520Z,24.05
2023-03-22T00:25:18.261Z,24.15
2023-03-22T00:27:46.603Z,28.13
2023-03-22T00:30:15.460Z,35.05
2023-03-22T00:32:43.701Z,28.95
2023-03-22T00:35:12.838Z,22.23
2023-03-22T00:37:41.102Z,21.88
2023-03-22T00:40:12.391Z,28.02
2023-03-22T00:42:41.488Z,24.27
2023-03-22T00:45:11.192Z,28.33
2023-03-22T00:47:39.817Z,25.75
2023-03-22T00:50:08.667Z,29.08
2023-03-22T00:52:37.804Z,21.33
2023-03-22T00:55:06.926Z,22.50
2023-03-22T00:57:34.966Z,22.80
2023-03-22T01:00:15.982Z,30.25
2023-03-22T01:02:47.137Z,23.02
2023-03-22T01:05:22.141Z,22.88
2023-03-22T01:07:55.036Z,23.63
2023-03-22T01:10:23.979Z,24.35
2023-03-22T01:12:52.244Z,23.10
2023-03-22T01:15:20.938Z,26.73
2023-03-22T01:17:49.574Z,26.77
2023-03-22T01:20:18.281Z,33.10
2023-03-22T01:22:46.657Z,25.67
2023-03-22T01:25:15.942Z,21.80
2023-03-22T01:27:44.413Z,22.48
2023-03-22T01:30:13.554Z,28.25
2023-03-22T01:32:41.878Z,23.50
2023-03-22T01:35:12.952Z,22.67
2023-03-22T01:37:43.111Z,23.88
2023-03-22T01:40:13.341Z,29.33
2023-03-22T01:42:41.842Z,26.50
2023-03-22T01:45:16.866Z,28.42
2023-03-22T01:47:51.876Z,30.30
2023-03-22T01:50:20.753Z,27.17
2023-03-22T01:52:50.327Z,26.33
2023-03-22T01:55:26.208Z,23.88
2023-03-22T01:58:09.325Z,30.25
2023-03-22T02:00:46.779Z,36.20
2023-03-22T02:03:47.988Z,27.25
2023-03-22T02:06:17.820Z,27.25
2023-03-22T02:08:48.107Z,26.42
2023-03-22T02:11:28.786Z,29.08
2023-03-22T02:14:09.204Z,28.40
2023-03-22T02:17:09.840Z,27.38
2023-03-22T02:19:48.638Z,26.67
2023-03-22T02:22:39.219Z,27.15
2023-03-22T02:25:18.611Z,24.73
2023-03-22T02:27:47.431Z,24.95
2023-03-22T02:30:15.611Z,27.90
2023-03-22T02:33:02.402Z,24.65
2023-03-22T02:35:38.267Z,26.70
2023-03-22T02:38:20.695Z,26.38
2023-03-22T02:40:55.096Z,29.10
2023-03-22T02:43:31.151Z,26.25
2023-03-22T02:46:06.070Z,33.38
2023-03-22T02:48:39.021Z,31.13
2023-03-22T02:51:29.690Z,29.10
2023-03-22T02:54:30.807Z,28.25
2023-03-22T02:57:14.822Z,27.25
2023-03-22T02:59:47.004Z,28.48
2023-03-22T03:02:19.778Z,28.92
2023-03-22T03:04:51.201Z,25.60
2023-03-22T03:07:24.630Z,30.15
2023-03-22T03:09:53.743Z,28.23
2023-03-22T03:12:24.943Z,26.23
2023-03-22T03:14:55.930Z,27.30
2023-03-22T03:17:24.285Z,27.88
2023-03-22T03:20:08.428Z,31.33
2023-03-22T03:22:58.441Z,32.42
2023-03-22T03:25:57.965Z,29.92
2023-03-22T03:28:30.422Z,28.65
2023-03-22T03:31:21.383Z,29.13
2023-03-22T03:34:13.654Z,27.40
2023-03-22T03:36:51.376Z,30.48
2023-03-22T03:39:22.383Z,29.98
2023-03-22T03:41:54.563Z,27.98
2023-03-22T03:44:23.277Z,28.10
2023-03-22T03:46:54.206Z,28.50
2023-03-22T03:49:25.305Z,30.02
2023-03-22T03:51:58.341Z,30.35
2023-03-22T03:54:26.784Z,31.67
2023-03-22T03:56:55.642Z,27.80
2023-03-22T03:59:24.388Z,34.08
2023-03-22T04:01:54.910Z,28.75
2023-03-22T04:04:29.108Z,29.90
2023-03-22T04:07:05.192Z,30.17
2023-03-22T04:09:37.461Z,27.20
2023-03-22T04:12:16.278Z,30.38
2023-03-22T04:14:52.895Z,27.17
2023-03-22T04:17:29.263Z,30.17
2023-03-22T04:19:58.328Z,26.80
2023-03-22T04:22:27.512Z,27.63
2023-03-22T04:24:56.006Z,27.58
2023-03-22T04:27:26.001Z,27.83
2023-03-22T04:30:05.054Z,31.27
2023-03-22T04:33:01.415Z,30.67
2023-03-22T04:35:47.587Z,28.52
2023-03-22T04:38:16.597Z,29.25
2023-03-22T04:40:46.823Z,28.38
2023-03-22T04:43:24.401Z,30.70
2023-03-22T04:45:58.533Z,26.83
2023-03-22T04:48:35.600Z,32.58
2023-03-22T04:51:05.879Z,29.52
2023-03-22T04:53:43.106Z,30.55
2023-03-22T04:56:14.592Z,43.00
2023-03-22T04:58:44.847Z,60.60
2023-03-22T05:01:15.119Z,49.92
2023-03-22T05:03:47.631Z,59.88
2023-03-22T05:06:18.927Z,71.38
2023-03-22T05:08:58.466Z,38.72
2023-03-22T05:11:28.396Z,32.38
2023-03-22T05:14:17.603Z,30.48
2023-03-22T05:16:46.038Z,29.30
2023-03-22T05:19:14.866Z,33.65
2023-03-22T05:21:47.471Z,38.80
2023-03-22T05:24:16.668Z,35.55
2023-03-22T05:27:01.669Z,29.70
2023-03-22T05:29:37.202Z,30.25
2023-03-22T05:32:10.155Z,30.58
2023-03-22T05:34:42.800Z,30.02
2023-03-22T05:37:27.653Z,35.35
2023-03-22T05:39:58.662Z,39.80
2023-03-22T05:42:36.761Z,51.45
2023-03-22T05:45:15.471Z,36.17
2023-03-22T05:47:46.430Z,31.90
2023-03-22T05:50:20.084Z,32.70
2023-03-22T05:52:50.471Z,31.83
2023-03-22T05:55:32.098Z,32.92
2023-03-22T05:58:03.199Z,43.15
2023-03-22T06:00:35.953Z,34.78
2023-03-22T06:03:43.835Z,40.13
2023-03-22T06:06:24.202Z,36.47
2023-03-22T06:09:16.357Z,35.65
2023-03-22T06:11:46.764Z,37.50
2023-03-22T06:14:17.086Z,35.30
2023-03-22T06:16:56.074Z,36.95
2023-03-22T06:19:25.736Z,36.78
2023-03-22T06:21:54.993Z,35.35
2023-03-22T06:24:26.184Z,33.35
2023-03-22T06:26:55.435Z,40.20
2023-03-22T06:29:24.468Z,43.65
2023-03-22T06:31:56.332Z,39.47
2023-03-22T06:34:24.906Z,42.90
2023-03-22T06:36:55.908Z,43.95
2023-03-22T06:39:34.209Z,45.30
2023-03-22T06:42:02.832Z,40.25
2023-03-22T06:44:31.553Z,41.80
2023-03-22T06:47:13.425Z,39.05
2023-03-22T06:50:03.488Z,40.38
2023-03-22T06:53:01.795Z,48.83
2023-03-22T06:55:34.618Z,49.25
2023-03-22T06:58:12.318Z,49.17
2023-03-22T07:00:41.783Z,50.67
2023-03-22T07:03:10.970Z,43.45
2023-03-22T07:05:46.578Z,43.38
2023-03-22T07:08:16.157Z,40.28
2023-03-22T07:10:51.239Z,43.55
2023-03-22T07:13:22.643Z,48.85
2023-03-22T07:16:04.103Z,43.30
2023-03-22T07:18:38.014Z,46.75
2023-03-22T07:21:06.954Z,43.03
2023-03-22T07:23:37.975Z,47.42
2023-03-22T07:26:10.971Z,44.97
2023-03-22T07:28:41.672Z,48.38
2023-03-22T07:31:13.793Z,42.47
2023-03-22T07:33:55.410Z,40.95
2023-03-22T07:36:26.807Z,44.72
2023-03-22T07:38:59.465Z,50.17
2023-03-22T07:41:34.731Z,44.97
2023-03-22T07:44:22.562Z,51.28
2023-03-22T07:47:09.177Z,49.33
2023-03-22T07:50:01.249Z,50.10
2023-03-22T07:52:33.420Z,46.85
2023-03-22T07:55:02.326Z,60.90
2023-03-22T07:57:30.521Z,86.75
2023-03-22T08:00:01.832Z,122.72
2023-03-22T08:02:46.025Z,78.25
2023-03-22T08:05:34.896Z,79.18
2023-03-22T08:08:05.073Z,64.57
2023-03-22T08:10:33.729Z,74.97
2023-03-22T08:13:02.274Z,70.07
2023-03-22T08:15:31.912Z,99.00
2023-03-22T08:18:00.785Z,76.93
2023-03-22T08:20:39.746Z,90.15
2023-03-22T08:23:16.208Z,96.60
2023-03-22T08:26:20.263Z,55.72
2023-03-22T08:28:48.732Z,68.50
2023-03-22T08:31:20.315Z,53.25
2023-03-22T08:33:49.309Z,63.33
2023-03-22T08:36:20.320Z,74.15
2023-03-22T08:38:55.169Z,76.68
2023-03-22T08:41:33.938Z,65.30
2023-03-22T08:44:02.318Z,50.63
2023-03-22T08:46:32.232Z,53.35
2023-03-22T08:49:02.335Z,59.88
2023-03-22T08:51:37.917Z,61.22
2023-03-22T08:54:19.293Z,51.35
2023-03-22T08:56:53.727Z,52.85
2023-03-22T08:59:33.641Z,61.40
2023-03-22T09:02:18.123Z,61.45
2023-03-22T09:04:47.437Z,66.60
2023-03-22T09:07:17.601Z,56.65
2023-03-22T09:09:50.469Z,57.30
2023-03-22T09:12:19.535Z,62.70
2023-03-22T09:14:49.420Z,68.18
2023-03-22T09:17:25.028Z,49.33
2023-03-22T09:20:02.863Z,60.03
2023-03-22T09:22:39.122Z,48.15
2023-03-22T09:27:52.331Z,51.42
2023-03-22T09:30:20.707Z,58.90
2023-03-22T09:32:49.486Z,62.42
2023-03-22T09:35:18.856Z,69.95
2023-03-22T09:37:59.006Z,52.00
2023-03-22T09:40:29.652Z,84.35
2023-03-22T09:43:06.309Z,53.42
2023-03-22T09:48:12.750Z,63.80
2023-03-22T09:50:46.339Z,54.90
2023-03-22T09:53:16.614Z,95.72
2023-03-22T09:55:54.685Z,69.70
2023-03-22T09:58:58.169Z,59.15
2023-03-22T10:01:26.754Z,51.28
2023-03-22T10:04:15.942Z,49.50
2023-03-22T10:06:48.756Z,53.17
2023-03-22T10:09:37.722Z,58.72
2023-03-22T10:12:16.968Z,55.65
2023-03-22T10:15:16.592Z,54.92
2023-03-22T10:17:48.556Z,59.78
2023-03-22T10:20:32.851Z,54.78
2023-03-22T10:23:06.031Z,56.30
2023-03-22T10:25:38.627Z,52.85
2023-03-22T10:28:42.051Z,56.78
2023-03-22T10:31:33.170Z,57.08
2023-03-22T10:37:30.089Z,60.47
2023-03-22T10:46:39.954Z,47.63
2023-03-22T10:49:08.791Z,53.85
2023-03-22T10:51:58.213Z,55.08
2023-03-22T10:54:26.731Z,49.38
2023-03-22T10:56:55.593Z,48.90
2023-03-22T10:59:42.824Z,53.88
2023-03-22T11:02:36.513Z,49.60
2023-03-22T11:05:07.281Z,47.08
2023-03-22T11:07:40.667Z,53.13
2023-03-22T11:10:09.922Z,49.30
2023-03-22T11:12:40.347Z,43.55
2023-03-22T11:15:24.618Z,45.03
2023-03-22T11:17:54.537Z,44.63
2023-03-22T11:20:24.199Z,41.85
2023-03-22T11:22:52.850Z,42.30
2023-03-22T11:25:28.503Z,42.28
2023-03-22T11:27:58.907Z,40.88
2023-03-22T11:30:29.769Z,42.58
2023-03-22T11:33:04.112Z,42.00
2023-03-22T11:35:32.688Z,38.53
2023-03-22T11:38:12.066Z,38.10
2023-03-22T11:40:54.066Z,41.28
2023-03-22T11:43:28.411Z,37.58
2023-03-22T11:46:01.386Z,38.90
2023-03-22T11:48:32.353Z,41.90
2023-03-22T11:51:13.572Z,49.05
2023-03-22T11:53:48.115Z,42.63
2023-03-22T11:56:17.972Z,44.10
2023-03-22T11:58:59.738Z,42.97
2023-03-22T12:01:37.035Z,53.15
2023-03-22T12:04:06.739Z,55.55
2023-03-22T12:06:37.193Z,96.20
2023-03-22T12:09:16.750Z,90.47
2023-03-22T12:11:48.968Z,93.03
2023-03-22T12:14:22.295Z,72.10
2023-03-22T12:16:55.262Z,75.57
2023-03-22T12:19:49.446Z,50.17
2023-03-22T12:22:26.085Z,58.83
2023-03-22T12:24:57.757Z,124.38
2023-03-22T12:27:32.248Z,111.38
2023-03-22T12:30:08.611Z,67.22
2023-03-22T12:32:38.900Z,65.90
2023-03-22T12:35:17.094Z,59.70
2023-03-22T12:37:49.490Z,55.83
2023-03-22T12:40:29.418Z,67.68
2023-03-22T12:43:19.523Z,54.40
2023-03-22T12:45:53.472Z,66.15
2023-03-22T12:48:41.479Z,30.92
2023-03-22T12:51:15.255Z,39.88
2023-03-22T12:53:50.264Z,35.95
2023-03-22T12:56:24.691Z,25.58
2023-03-22T12:58:58.569Z,27.20
2023-03-22T13:01:55.249Z,35.03
2023-03-22T13:04:34.857Z,25.85
2023-03-22T13:07:12.573Z,24.55
2023-03-22T13:09:49.434Z,39.20
2023-03-22T13:12:18.295Z,25.85
2023-03-22T13:15:04.811Z,32.53
2023-03-22T13:17:38.923Z,26.95
2023-03-22T13:20:07.649Z,26.48
2023-03-22T13:22:38.908Z,29.95
2023-03-22T13:25:13.735Z,27.92
2023-03-22T13:27:50.233Z,21.00
2023-03-22T13:30:22.099Z,21.02
2023-03-22T13:33:08.946Z,19.77
2023-03-22T13:35:50.996Z,19.13
2023-03-22T13:38:37.330Z,22.35
2023-03-22T13:41:10.174Z,26.77
2023-03-22T13:43:50.378Z,23.75
2023-03-22T13:46:21.507Z,20.65
2023-03-22T13:48:51.964Z,35.45
2023-03-22T13:51:23.575Z,21.17
2023-03-22T13:53:52.400Z,66.88
2023-03-22T13:56:39.358Z,35.10
2023-03-22T13:59:11.155Z,54.92
2023-03-22T14:01:47.846Z,35.70
2023-03-22T14:04:35.642Z,24.50
2023-03-22T14:07:23.079Z,43.92
2023-03-22T14:09:53.811Z,32.60
2023-03-22T14:12:25.445Z,33.67
2023-03-22T14:14:58.433Z,31.25
2023-03-22T14:17:26.978Z,28.90
2023-03-22T14:19:56.876Z,25.92
